Date,TemperatureHighF,TemperatureAvgF,TemperatureLowF,DewpointHighF,DewpointAvgF,DewpointLowF,HumidityHigh,HumidityAvg,HumidityLow,PressureMaxIn,PressureMinIn,WindSpeedMaxMPH,WindSpeedAvgMPH,GustSpeedMaxMPH,PrecipitationSumIn
2013-8-1,78.7,71.7,65.1,69.2,65.3,62.1,96,81,65,30.11,29.94,16,5,17,0.06
2013-8-2,82.8,71.3,64.3,72.0,67.2,62.4,98,87,55,29.94,29.84,19,4,19,0.27
2013-8-3,75.0,72.2,69.8,69.5,67.0,63.9,92,84,72,29.94,29.84,20,7,20,0.00
2013-8-4,79.6,69.4,58.9,64.7,60.1,56.4,93,74,50,29.92,29.81,14,1,14,0.00
2013-8-5,77.8,66.8,55.7,58.8,53.8,46.1,94,66,33,30.09,29.92,11,2,14,0.00
2013-8-6,76.7,65.1,50.2,60.2,53.2,48.4,97,69,39,30.21,30.08,13,2,13,0.00
2013-8-7,76.5,66.9,53.5,65.6,56.2,52.1,97,71,45,30.24,30.18,17,2,17,0.00
2013-8-8,75.4,71.1,64.3,71.1,66.1,55.2,92,84,72,30.19,30.09,19,8,21,0.01
2013-8-9,75.5,73.9,71.7,73.2,71.7,70.4,97,93,89,30.11,29.83,30,12,30,0.43
2013-8-10,83.2,74.1,64.3,72.1,66.0,56.5,98,78,47,30.05,29.83,21,3,21,0.00
2013-8-11,76.7,68.5,55.7,61.8,57.3,51.1,95,69,45,30.12,30.04,18,4,18,0.00
2013-8-12,74.6,70.8,66.4,69.7,66.0,60.9,96,85,76,30.09,29.98,16,6,16,0.00
2013-8-13,71.1,67.7,62.6,68.9,66.0,61.4,98,94,89,29.97,29.73,10,1,10,0.04
2013-8-14,75.5,69.7,64.0,65.6,58.0,50.8,97,69,48,29.90,29.70,22,4,22,0.00
2013-8-15,74.1,66.5,55.6,59.4,54.4,48.0,90,67,41,30.17,29.99,14,5,23,0.00
2013-8-16,75.4,68.1,57.1,64.4,60.0,55.1,94,76,55,30.25,30.16,12,5,17,0.00
2013-8-17,79.1,70.9,58.7,64.5,61.8,57.0,96,74,56,30.33,30.25,11,2,12,0.00
2013-8-18,75.7,67.0,57.9,65.1,61.2,56.8,98,83,58,30.32,30.13,6,0,6,0.04
2013-8-19,80.2,70.2,58.6,69.2,63.0,57.2,98,79,56,30.14,30.00,14,3,14,0.01
2013-8-20,79.6,72.8,64.3,70.1,66.7,62.3,95,82,67,30.14,30.02,14,4,14,0.00
2013-8-21,80.0,70.9,61.7,70.7,66.3,60.5,98,86,69,30.19,30.10,14,3,16,0.00
2013-8-22,74.9,72.5,70.5,71.9,70.4,67.9,97,93,86,30.10,29.89,20,10,20,0.00
2013-8-23,77.7,70.0,60.9,69.9,62.6,55.6,98,79,52,30.14,29.85,20,3,21,0.00
2013-8-24,72.9,63.9,51.4,59.5,53.1,44.9,93,71,38,30.38,30.14,17,2,17,0.00
2013-8-25,78.6,66.0,49.3,64.1,57.6,47.9,98,76,46,30.41,30.26,17,4,18,0.00
2013-8-26,73.7,70.7,69.0,68.4,65.5,60.2,91,84,71,30.26,29.94,24,10,24,0.00
2013-8-27,76.4,70.4,67.3,72.2,68.9,66.4,98,95,82,29.94,29.87,15,2,15,0.31
2013-8-28,78.1,69.5,64.8,70.6,66.8,64.2,99,92,73,29.99,29.89,12,1,12,0.00
2013-8-29,66.7,64.4,59.2,65.5,62.9,57.8,98,95,89,30.09,29.98,16,2,21,0.02
2013-8-30,71.7,66.2,58.7,68.7,63.7,57.6,97,91,83,30.06,29.90,19,6,19,0.00
2013-8-31,72.2,70.9,69.6,70.6,69.5,68.1,97,95,93,29.91,29.87,20,10,20,0.00